createdAt,value
2023-02-03T00:01:44.922Z,91646.03
2023-02-03T00:04:11.578Z,91640.88
2023-02-03T00:06:38.178Z,91632.13
2023-02-03T00:09:04.979Z,91649.81
2023-02-03T00:11:31.674Z,91634.41
2023-02-03T00:13:58.363Z,91630.53
2023-02-03T00:16:25.029Z,91629.47
2023-02-03T00:18:51.790Z,91633.03
2023-02-03T00:21:18.506Z,91621.13
2023-02-03T00:23:45.204Z,91620.19
2023-02-03T00:26:13.817Z,91613.53
2023-02-03T00:28:40.421Z,91613.28
2023-02-03T00:31:08.274Z,91617.91
2023-02-03T00:33:35.071Z,91614.50
2023-02-03T00:36:06.222Z,91610.47
2023-02-03T00:38:32.821Z,91613.78
2023-02-03T00:40:59.501Z,91614.59
2023-02-03T00:43:26.231Z,91624.44
2023-02-03T00:45:52.962Z,91632.13
2023-02-03T00:48:20.714Z,91652.69
2023-02-03T00:50:47.726Z,91654.13
2023-02-03T00:53:14.375Z,91648.06
2023-02-03T00:55:42.952Z,91639.09
2023-02-03T00:58:09.609Z,91640.34
2023-02-03T01:00:36.220Z,91632.56
2023-02-03T01:03:03.514Z,91646.25
2023-02-03T01:05:30.251Z,91631.41
2023-02-03T01:07:56.933Z,91633.31
2023-02-03T01:10:23.616Z,91641.22
2023-02-03T01:12:50.370Z,91653.50
2023-02-03T01:15:17.072Z,91650.53
2023-02-03T01:17:43.782Z,91648.50
2023-02-03T01:20:12.391Z,91647.59
2023-02-03T01:22:38.952Z,91658.84
2023-02-03T01:25:05.976Z,91650.53
2023-02-03T01:27:33.315Z,91653.13
2023-02-03T01:30:00.014Z,91662.13
2023-02-03T01:32:27.168Z,91663.09
2023-02-03T01:34:53.779Z,91674.53
2023-02-03T01:37:20.537Z,91668.97
2023-02-03T01:39:47.141Z,91656.03
2023-02-03T01:42:14.463Z,91654.47
2023-02-03T01:44:43.442Z,91650.06
2023-02-03T01:47:16.360Z,91658.00
2023-02-03T01:49:45.479Z,91679.56
2023-02-03T01:52:12.168Z,91677.22
2023-02-03T01:54:41.520Z,91676.16
2023-02-03T01:57:13.455Z,91672.06
2023-02-03T01:59:40.149Z,91672.06
2023-02-03T02:02:06.844Z,91673.19
2023-02-03T02:05:07.038Z,91661.28
2023-02-03T02:07:34.525Z,91658.22
2023-02-03T02:10:01.307Z,91663.84
2023-02-03T02:12:27.895Z,91671.00
2023-02-03T02:14:54.542Z,91661.34
2023-02-03T02:17:58.650Z,91668.13
2023-02-03T02:20:32.639Z,91655.41
2023-02-03T02:23:17.846Z,91670.88
2023-02-03T02:25:48.837Z,91682.78
2023-02-03T02:28:44.711Z,91690.91
2023-02-03T02:31:17.520Z,91704.31
2023-02-03T02:33:45.995Z,91699.28
2023-02-03T02:36:25.513Z,91709.72
2023-02-03T02:38:59.704Z,91710.91
2023-02-03T02:41:47.352Z,91722.50
2023-02-03T02:44:17.788Z,91733.38
2023-02-03T02:46:52.888Z,91738.56
2023-02-03T02:49:40.201Z,91742.31
2023-02-03T02:52:07.017Z,91743.44
2023-02-03T02:54:33.777Z,91744.94
2023-02-03T02:57:01.960Z,91743.97
2023-02-03T02:59:28.729Z,91720.69
2023-02-03T03:01:55.537Z,91729.50
2023-02-03T03:04:25.077Z,91724.31
2023-02-03T03:06:58.538Z,91726.03
2023-02-03T03:09:36.092Z,91722.91
2023-02-03T03:12:15.202Z,91744.94
2023-02-03T03:14:44.867Z,91744.25
2023-02-03T03:17:12.316Z,91740.00
2023-02-03T03:19:41.938Z,91740.31
2023-02-03T03:22:09.906Z,91738.56
2023-02-03T03:24:49.293Z,91732.38
2023-02-03T03:27:23.669Z,91735.09
2023-02-03T03:29:58.493Z,91739.03
2023-02-03T03:32:25.168Z,91746.69
2023-02-03T03:34:51.820Z,91739.09
2023-02-03T03:37:42.909Z,91749.91
2023-02-03T03:40:29.063Z,91760.88
2023-02-03T03:43:01.398Z,91763.25
2023-02-03T03:45:49.456Z,91769.88
2023-02-03T03:48:32.446Z,91780.81
2023-02-03T03:51:20.136Z,91784.16
2023-02-03T03:53:47.616Z,91782.34
2023-02-03T03:56:17.595Z,91783.97
2023-02-03T03:58:45.359Z,91789.91
2023-02-03T04:01:12.172Z,91795.84
2023-02-03T04:03:41.220Z,91790.22
2023-02-03T04:06:07.912Z,91790.84
2023-02-03T04:08:34.537Z,91789.75
2023-02-03T04:11:01.284Z,91781.09
2023-02-03T04:13:27.884Z,91776.00
2023-02-03T04:15:54.623Z,91775.78
2023-02-03T04:18:21.324Z,91775.09
2023-02-03T04:20:48.410Z,91784.41
2023-02-03T04:23:15.126Z,91783.13
2023-02-03T04:25:42.019Z,91784.53
2023-02-03T04:28:08.982Z,91785.75
2023-02-03T04:30:35.650Z,91785.41
2023-02-03T04:33:02.365Z,91792.81
2023-02-03T04:35:29.072Z,91795.31
2023-02-03T04:37:55.742Z,91790.88
2023-02-03T04:40:22.341Z,91806.81
2023-02-03T04:42:49.052Z,91809.03
2023-02-03T04:45:15.712Z,91803.78
2023-02-03T04:47:42.395Z,91802.50
2023-02-03T04:50:09.381Z,91792.69
2023-02-03T04:52:36.002Z,91800.66
2023-02-03T04:55:04.030Z,91812.88
2023-02-03T04:57:30.919Z,91816.47
2023-02-03T04:59:57.568Z,91822.59
2023-02-03T05:02:24.216Z,91836.31
2023-02-03T05:04:50.935Z,91837.03
2023-02-03T05:07:17.559Z,91847.91
2023-02-03T05:09:44.202Z,91852.47
2023-02-03T05:12:10.850Z,91856.47
2023-02-03T05:14:37.527Z,91861.00
2023-02-03T05:17:04.173Z,91856.41
2023-02-03T05:19:30.833Z,91852.81
2023-02-03T05:21:57.495Z,91847.50
2023-02-03T05:24:24.107Z,91851.00
2023-02-03T05:26:50.792Z,91848.25
2023-02-03T05:29:17.398Z,91859.06
2023-02-03T05:31:44.143Z,91843.88
2023-02-03T05:34:10.803Z,91838.84
2023-02-03T05:36:37.416Z,91847.16
2023-02-03T05:39:04.293Z,91847.63
2023-02-03T05:41:49.835Z,91854.13
2023-02-03T05:44:16.532Z,91859.06
2023-02-03T05:46:43.150Z,91856.59
2023-02-03T05:49:09.861Z,91857.47
2023-02-03T05:51:36.495Z,91876.03
2023-02-03T05:54:03.171Z,91872.03
2023-02-03T05:56:29.778Z,91874.78
2023-02-03T05:58:56.420Z,91858.13
2023-02-03T06:01:23.079Z,91865.00
2023-02-03T06:03:49.977Z,91860.75
2023-02-03T06:06:16.699Z,91866.34
2023-02-03T06:08:43.544Z,91861.88
2023-02-03T06:11:10.532Z,91876.81
2023-02-03T06:13:37.188Z,91877.19
2023-02-03T06:16:04.013Z,91886.00
2023-02-03T06:18:30.682Z,91879.41
2023-02-03T06:20:57.396Z,91888.63
2023-02-03T06:23:24.064Z,91880.78
2023-02-03T06:25:51.124Z,91881.97
2023-02-03T06:28:18.141Z,91884.25
2023-02-03T06:30:45.108Z,91890.63
2023-02-03T06:33:11.935Z,91889.19
2023-02-03T06:35:38.629Z,91890.31
2023-02-03T06:38:05.373Z,91896.16
2023-02-03T06:40:31.979Z,91897.38
2023-02-03T06:42:58.708Z,91904.97
2023-02-03T06:45:25.877Z,91899.28
2023-02-03T06:47:52.691Z,91893.53
2023-02-03T06:50:19.383Z,91898.03
2023-02-03T06:52:46.021Z,91906.00
2023-02-03T06:55:12.801Z,91903.69
2023-02-03T06:57:46.782Z,91904.75
2023-02-03T07:00:16.167Z,91902.13
2023-02-03T07:02:44.263Z,91905.81
2023-02-03T07:05:10.984Z,91912.03
2023-02-03T07:07:39.503Z,91910.78
2023-02-03T07:10:06.804Z,91912.41
2023-02-03T07:12:33.428Z,91912.22
2023-02-03T07:15:00.095Z,91910.19
2023-02-03T07:17:26.872Z,91908.81
2023-02-03T07:19:53.615Z,91907.78
2023-02-03T07:22:20.370Z,91919.72
2023-02-03T07:24:47.061Z,91923.00
2023-02-03T07:27:13.653Z,91917.00
2023-02-03T07:29:40.343Z,91921.69
2023-02-03T07:32:07.210Z,91923.31
2023-02-03T07:34:33.866Z,91922.59
2023-02-03T07:37:00.562Z,91936.41
2023-02-03T07:39:27.173Z,91937.94
2023-02-03T07:41:53.805Z,91935.75
2023-02-03T07:44:20.444Z,91933.75
2023-02-03T07:46:47.201Z,91941.59
2023-02-03T07:49:14.196Z,91952.75
2023-02-03T07:51:41.078Z,91962.09
2023-02-03T07:54:07.910Z,91944.84
2023-02-03T07:56:34.546Z,91946.97
2023-02-03T07:59:01.497Z,91939.78
2023-02-03T08:01:28.441Z,91939.50
2023-02-03T08:03:55.442Z,91939.94
2023-02-03T08:06:22.230Z,91941.22
2023-02-03T08:08:48.871Z,91957.47
2023-02-03T08:11:15.526Z,91954.16
2023-02-03T08:13:42.186Z,91944.72
2023-02-03T08:16:08.913Z,91939.72
2023-02-03T08:18:35.597Z,91941.44
2023-02-03T08:21:04.127Z,91946.22
2023-02-03T08:23:31.189Z,91947.66
2023-02-03T08:25:57.992Z,91935.56
2023-02-03T08:28:24.655Z,91952.94
2023-02-03T08:30:51.383Z,91956.09
2023-02-03T08:33:18.126Z,91957.09
2023-02-03T08:35:48.810Z,91961.63
2023-02-03T08:38:15.660Z,91973.28
2023-02-03T08:40:42.345Z,91963.75
2023-02-03T08:43:09.123Z,91966.00
2023-02-03T08:45:35.804Z,91961.75
2023-02-03T08:48:02.574Z,91958.19
2023-02-03T08:50:29.491Z,91968.28
2023-02-03T08:52:56.313Z,91967.41
2023-02-03T08:55:22.997Z,91972.75
2023-02-03T08:57:49.716Z,91972.59
2023-02-03T09:00:16.708Z,91983.06
2023-02-03T09:02:43.391Z,91976.19
2023-02-03T09:05:10.267Z,91992.09
2023-02-03T09:07:36.961Z,91982.00
2023-02-03T09:10:03.922Z,91987.19
2023-02-03T09:12:30.622Z,91991.09
2023-02-03T09:14:57.324Z,91996.75
2023-02-03T09:17:24.037Z,91998.44
2023-02-03T09:19:50.761Z,91987.41
2023-02-03T09:22:17.432Z,91994.31
2023-02-03T09:24:44.277Z,91988.06
2023-02-03T09:27:11.080Z,91992.84
2023-02-03T09:29:37.916Z,92000.63
2023-02-03T09:32:08.915Z,91970.78
2023-02-03T09:34:35.756Z,91979.50
2023-02-03T09:37:02.483Z,91971.72
2023-02-03T09:39:29.282Z,91966.78
2023-02-03T09:42:33.921Z,91966.22
2023-02-03T09:45:18.434Z,91974.22
2023-02-03T09:47:45.444Z,91976.91
2023-02-03T09:50:20.333Z,91970.88
2023-02-03T09:52:47.553Z,91966.94
2023-02-03T09:55:37.386Z,91968.91
2023-02-03T09:58:13.055Z,91975.63
2023-02-03T10:00:47.400Z,91965.66
2023-02-03T10:03:20.315Z,91971.97
2023-02-03T10:06:14.053Z,91962.56
2023-02-03T10:09:06.790Z,91950.63
2023-02-03T10:11:54.768Z,91959.50
2023-02-03T10:15:00.279Z,91957.75
2023-02-03T10:17:36.720Z,91952.44
2023-02-03T10:20:09.305Z,91942.59
2023-02-03T10:22:40.636Z,91936.97
2023-02-03T10:25:24.802Z,91945.53
2023-02-03T10:27:52.219Z,91942.31
2023-02-03T10:30:29.619Z,91942.16
2023-02-03T10:33:00.497Z,91948.13
2023-02-03T10:35:32.589Z,91945.97
2023-02-03T10:37:59.479Z,91944.06
2023-02-03T10:40:26.720Z,91940.00
2023-02-03T10:43:12.021Z,91936.34
2023-02-03T10:45:38.759Z,91939.06
2023-02-03T10:48:07.295Z,91934.47
2023-02-03T10:50:33.943Z,91933.16
2023-02-03T10:53:23.284Z,91938.19
2023-02-03T10:56:01.671Z,91940.91
2023-02-03T10:58:29.541Z,91932.31
2023-02-03T11:01:14.111Z,91946.13
2023-02-03T11:03:54.588Z,91947.00
2023-02-03T11:06:21.201Z,91935.72
2023-02-03T11:08:48.726Z,91937.41
2023-02-03T11:11:37.431Z,91934.38
2023-02-03T11:14:04.060Z,91923.50
2023-02-03T11:16:30.955Z,91914.22
2023-02-03T11:19:03.817Z,91914.16
2023-02-03T11:21:32.461Z,91905.34
2023-02-03T11:24:21.038Z,91905.41
2023-02-03T11:27:09.397Z,91889.53
2023-02-03T11:29:37.480Z,91890.84
2023-02-03T11:32:49.444Z,91894.31
2023-02-03T11:35:26.289Z,91910.44
2023-02-03T11:37:56.296Z,91909.78
2023-02-03T11:40:26.331Z,91899.47
2023-02-03T11:42:53.080Z,91908.69
2023-02-03T11:45:29.454Z,91898.72
2023-02-03T11:48:11.004Z,91887.97
2023-02-03T11:50:54.977Z,91902.50
2023-02-03T11:54:00.554Z,91894.59
2023-02-03T11:56:39.199Z,91884.06
2023-02-03T11:59:14.733Z,91880.22
2023-02-03T12:01:57.599Z,91882.19
2023-02-03T12:04:35.873Z,91881.88
2023-02-03T12:07:17.660Z,91880.72
2023-02-03T12:09:46.407Z,91890.97
2023-02-03T12:12:20.111Z,91888.50
2023-02-03T12:14:55.623Z,91887.06
2023-02-03T12:17:25.407Z,91894.50
2023-02-03T12:20:29.403Z,91912.19
2023-02-03T12:23:33.065Z,91890.56
2023-02-03T12:26:02.701Z,91883.47
2023-02-03T12:28:43.849Z,91879.72
2023-02-03T12:31:29.493Z,91882.25
2023-02-03T12:34:13.504Z,91875.31
2023-02-03T12:36:41.788Z,91886.28
2023-02-03T12:39:15.159Z,91887.84
2023-02-03T12:41:45.389Z,91895.25
2023-02-03T12:44:38.205Z,91885.78
2023-02-03T12:47:09.299Z,91879.25
2023-02-03T12:49:52.636Z,91873.69
2023-02-03T12:52:38.959Z,91877.06
2023-02-03T12:55:27.391Z,91882.63
2023-02-03T12:58:18.204Z,91874.28
2023-02-03T13:01:06.276Z,91883.16
2023-02-03T13:03:54.423Z,91877.19
2023-02-03T13:06:27.971Z,91868.91
2023-02-03T13:09:02.887Z,91866.75
2023-02-03T13:11:46.644Z,91872.03
2023-02-03T13:14:31.914Z,91851.56
2023-02-03T13:17:01.954Z,91846.69
2023-02-03T13:19:32.146Z,91838.81
2023-02-03T13:21:58.794Z,91848.75
2023-02-03T13:24:25.494Z,91837.41
2023-02-03T13:27:26.222Z,91866.41
2023-02-03T13:30:08.823Z,91860.69
2023-02-03T13:32:56.894Z,91853.53
2023-02-03T13:35:33.866Z,91845.13
2023-02-03T13:38:13.312Z,91846.03
2023-02-03T13:41:01.625Z,91852.91
2023-02-03T13:43:38.252Z,91843.53
2023-02-03T13:46:07.932Z,91846.59
2023-02-03T13:48:35.513Z,91845.28
2023-02-03T13:51:13.799Z,91853.16
2023-02-03T13:53:40.799Z,91851.41
2023-02-03T13:56:09.305Z,91849.94
2023-02-03T13:58:38.175Z,91845.59
2023-02-03T14:01:06.134Z,91847.94
2023-02-03T14:03:42.015Z,91856.34
2023-02-03T14:06:30.832Z,91856.00
2023-02-03T14:09:00.508Z,91862.06
2023-02-03T14:11:36.273Z,91852.78
2023-02-03T14:14:05.715Z,91861.31
2023-02-03T14:16:35.966Z,91851.38
2023-02-03T14:19:02.695Z,91858.66
2023-02-03T14:21:36.958Z,91848.94
2023-02-03T14:24:09.290Z,91851.09
2023-02-03T14:26:38.807Z,91858.28
2023-02-03T14:29:06.172Z,91859.16
2023-02-03T14:31:33.070Z,91866.00
2023-02-03T14:34:10.096Z,91865.47
2023-02-03T14:36:45.822Z,91865.84
2023-02-03T14:39:18.665Z,91865.53
2023-02-03T14:42:03.552Z,91863.50
2023-02-03T14:45:07.490Z,91862.88
2023-02-03T14:47:34.071Z,91855.50
2023-02-03T14:50:34.158Z,91850.91
2023-02-03T14:53:39.018Z,91842.59
2023-02-03T14:56:13.940Z,91839.44
2023-02-03T14:58:49.749Z,91841.94
2023-02-03T15:01:42.863Z,91844.38
2023-02-03T15:04:09.542Z,91848.78
2023-02-03T15:06:41.197Z,91847.22
2023-02-03T15:09:45.970Z,91849.22
2023-02-03T15:12:19.224Z,91838.44
2023-02-03T15:14:45.868Z,91834.38
2023-02-03T15:17:18.874Z,91831.38
2023-02-03T15:19:45.800Z,91823.19
2023-02-03T15:22:26.663Z,91825.28
2023-02-03T15:24:56.014Z,91833.84
2023-02-03T15:27:27.313Z,91819.66
2023-02-03T15:29:54.441Z,91821.09
2023-02-03T15:32:31.041Z,91820.47
2023-02-03T15:34:57.825Z,91818.44
2023-02-03T15:37:48.231Z,91813.69
2023-02-03T15:40:18.871Z,91825.81
2023-02-03T15:42:58.933Z,91820.47
2023-02-03T15:45:46.060Z,91809.34
2023-02-03T15:48:23.975Z,91797.75
2023-02-03T15:50:53.630Z,91782.59
2023-02-03T15:53:29.678Z,91793.84
2023-02-03T15:56:05.472Z,91783.81
2023-02-03T15:58:44.808Z,91785.72
2023-02-03T16:01:17.964Z,91788.94
2023-02-03T16:03:55.111Z,91779.44
2023-02-03T16:06:30.649Z,91776.63
2023-02-03T16:08:58.836Z,91779.94
2023-02-03T16:11:28.413Z,91771.78
2023-02-03T16:13:59.740Z,91778.69
2023-02-03T16:16:29.161Z,91774.59
2023-02-03T16:19:01.531Z,91765.00
2023-02-03T16:21:29.530Z,91765.06
2023-02-03T16:23:56.412Z,91758.34
2023-02-03T16:26:24.914Z,91765.69
2023-02-03T16:29:16.323Z,91765.22
2023-02-03T16:32:04.397Z,91759.34
2023-02-03T16:34:49.537Z,91764.34
2023-02-03T16:37:45.888Z,91756.44
2023-02-03T16:40:31.962Z,91753.19
2023-02-03T16:43:17.057Z,91749.56
2023-02-03T16:46:02.507Z,91736.91
2023-02-03T16:48:47.749Z,91745.81
2023-02-03T16:51:18.516Z,91737.34
2023-02-03T16:53:45.606Z,91740.78
2023-02-03T16:56:12.491Z,91738.41
2023-02-03T16:58:39.251Z,91735.34
2023-02-03T17:01:06.468Z,91728.72
2023-02-03T17:03:36.376Z,91733.38
2023-02-03T17:06:08.111Z,91721.78
2023-02-03T17:08:34.880Z,91720.91
2023-02-03T17:11:13.527Z,91719.63
2023-02-03T17:13:40.487Z,91716.81
2023-02-03T17:16:14.659Z,91718.38
2023-02-03T17:18:41.381Z,91717.47
2023-02-03T17:21:09.963Z,91717.63
2023-02-03T17:23:36.700Z,91706.56
2023-02-03T17:26:03.468Z,91711.69
2023-02-03T17:28:30.063Z,91707.47
2023-02-03T17:30:58.355Z,91721.38
2023-02-03T17:33:25.220Z,91710.56
2023-02-03T17:36:03.624Z,91698.63
2023-02-03T17:38:30.817Z,91706.19
2023-02-03T17:54:39.721Z,91671.66
2023-02-03T17:57:06.473Z,91671.19
2023-02-03T17:59:35.040Z,91660.56
2023-02-03T18:02:01.907Z,91658.81
2023-02-03T18:04:28.680Z,91649.28
2023-02-03T18:06:55.364Z,91651.97
2023-02-03T18:09:22.062Z,91644.75
2023-02-03T18:11:48.671Z,91639.91
2023-02-03T18:14:16.323Z,91638.97
2023-02-03T18:16:43.080Z,91644.28
2023-02-03T18:19:12.985Z,91626.38
2023-02-03T18:21:39.817Z,91630.22
2023-02-03T18:24:06.676Z,91625.44
2023-02-03T18:26:34.506Z,91620.19
2023-02-03T18:29:01.347Z,91624.13
2023-02-03T18:31:28.146Z,91621.16
2023-02-03T18:33:54.913Z,91610.53
2023-02-03T18:36:21.564Z,91611.75
2023-02-03T18:38:48.401Z,91606.75
2023-02-03T18:41:16.191Z,91604.81
2023-02-03T18:43:42.943Z,91603.16
2023-02-03T18:46:10.693Z,91593.25
2023-02-03T18:48:37.443Z,91595.22
2023-02-03T18:51:08.227Z,91590.03
2023-02-03T18:53:34.958Z,91599.44
2023-02-03T18:56:01.729Z,91581.75
2023-02-03T18:58:28.686Z,91594.88
2023-02-03T19:00:56.133Z,91594.72
2023-02-03T19:03:24.843Z,91585.91
2023-02-03T19:05:51.485Z,91583.78
2023-02-03T19:08:18.147Z,91581.03
2023-02-03T19:10:44.742Z,91587.88
2023-02-03T19:13:11.649Z,91593.41
2023-02-03T19:15:38.525Z,91587.16
2023-02-03T19:18:05.293Z,91585.09
2023-02-03T19:20:31.942Z,91570.81
2023-02-03T19:22:58.727Z,91579.09
2023-02-03T19:25:27.850Z,91572.69
2023-02-03T19:27:54.547Z,91569.38
2023-02-03T19:30:22.074Z,91565.94
2023-02-03T19:32:48.740Z,91549.03
2023-02-03T19:35:15.625Z,91550.00
2023-02-03T19:37:42.397Z,91544.81
2023-02-03T19:40:09.641Z,91547.25
2023-02-03T19:42:36.332Z,91542.38
2023-02-03T19:45:03.005Z,91535.69
2023-02-03T19:47:29.669Z,91534.19
2023-02-03T19:49:56.392Z,91522.19
2023-02-03T19:52:23.028Z,91521.41
2023-02-03T19:54:49.652Z,91512.03
2023-02-03T19:57:16.429Z,91517.72
2023-02-03T19:59:43.064Z,91507.22
2023-02-03T20:02:14.301Z,91514.19
2023-02-03T20:04:41.805Z,91502.06
2023-02-03T20:07:08.554Z,91496.91
2023-02-03T20:09:35.240Z,91485.31
2023-02-03T20:12:01.942Z,91487.66
2023-02-03T20:14:28.653Z,91497.25
2023-02-03T20:16:55.361Z,91511.72
2023-02-03T20:19:22.146Z,91494.38
2023-02-03T20:21:48.798Z,91494.97
2023-02-03T20:24:15.490Z,91487.50
2023-02-03T20:26:42.084Z,91485.75
2023-02-03T20:29:08.732Z,91483.31
2023-02-03T20:31:35.753Z,91478.91
2023-02-03T20:34:04.147Z,91466.16
2023-02-03T20:36:30.925Z,91469.47
2023-02-03T20:38:57.587Z,91472.03
2023-02-03T20:41:24.260Z,91456.97
2023-02-03T20:43:50.841Z,91457.63
2023-02-03T20:46:18.472Z,91447.50
2023-02-03T20:48:45.233Z,91445.03
2023-02-03T20:51:13.044Z,91450.84
2023-02-03T20:53:39.852Z,91448.47
2023-02-03T20:56:14.053Z,91438.97
2023-02-03T20:58:40.947Z,91428.69
2023-02-03T21:01:33.901Z,91433.78
2023-02-03T21:04:19.177Z,91428.50
2023-02-03T21:06:45.837Z,91430.19
2023-02-03T21:09:16.287Z,91423.00
2023-02-03T21:11:43.237Z,91412.88
2023-02-03T21:14:35.003Z,91424.84
2023-02-03T21:17:01.765Z,91420.50
2023-02-03T21:19:32.711Z,91432.31
2023-02-03T21:21:59.940Z,91419.72
2023-02-03T21:24:33.067Z,91423.13
2023-02-03T21:27:00.344Z,91419.91
2023-02-03T21:29:30.075Z,91417.69
2023-02-03T21:31:56.982Z,91411.13
2023-02-03T21:34:34.375Z,91404.72
2023-02-03T21:37:37.074Z,91386.63
2023-02-03T21:40:17.426Z,91392.50
2023-02-03T21:42:45.964Z,91405.97
2023-02-03T21:45:19.348Z,91394.06
2023-02-03T21:47:49.145Z,91395.19
2023-02-03T21:50:29.856Z,91393.81
2023-02-03T21:53:14.277Z,91409.56
2023-02-03T21:55:41.374Z,91413.13
2023-02-03T21:58:34.689Z,91395.50
2023-02-03T22:01:02.752Z,91397.63
2023-02-03T22:03:40.737Z,91392.91
2023-02-03T22:06:16.618Z,91390.53
2023-02-03T22:08:47.844Z,91387.88
2023-02-03T22:11:15.341Z,91383.53
2023-02-03T22:13:42.786Z,91389.94
2023-02-03T22:16:09.697Z,91386.72
2023-02-03T22:18:37.615Z,91386.44
2023-02-03T22:21:04.333Z,91385.38
2023-02-03T22:23:31.785Z,91373.34
2023-02-03T22:25:58.532Z,91381.16
2023-02-03T22:28:25.399Z,91381.63
2023-02-03T22:30:52.448Z,91372.72
2023-02-03T22:33:19.255Z,91365.06
2023-02-03T22:35:45.877Z,91374.56
2023-02-03T22:38:12.626Z,91375.19
2023-02-03T22:40:39.346Z,91372.31
2023-02-03T22:43:06.033Z,91365.59
2023-02-03T22:45:32.713Z,91366.03
2023-02-03T22:48:00.382Z,91358.78
2023-02-03T22:50:35.535Z,91352.75
2023-02-03T22:53:07.063Z,91344.47
2023-02-03T22:55:33.821Z,91341.88
2023-02-03T22:58:00.498Z,91342.81
2023-02-03T23:00:27.270Z,91328.72
2023-02-03T23:02:54.401Z,91337.84
2023-02-03T23:05:21.106Z,91347.56
2023-02-03T23:07:48.157Z,91344.44
2023-02-03T23:10:19.918Z,91335.28
2023-02-03T23:12:46.628Z,91325.97
2023-02-03T23:15:13.559Z,91321.84
2023-02-03T23:17:40.531Z,91319.56
2023-02-03T23:20:07.972Z,91322.25
2023-02-03T23:22:34.856Z,91315.53
2023-02-03T23:25:02.545Z,91318.34
2023-02-03T23:27:29.263Z,91301.41
2023-02-03T23:29:55.984Z,91303.56
2023-02-03T23:32:22.833Z,91314.72
2023-02-03T23:35:07.893Z,91307.53
2023-02-03T23:37:34.485Z,91304.22
2023-02-03T23:40:01.140Z,91295.28
2023-02-03T23:42:27.738Z,91298.88
2023-02-03T23:44:55.902Z,91295.84
2023-02-03T23:47:22.650Z,91294.84
2023-02-03T23:49:49.351Z,91301.69
2023-02-03T23:52:15.995Z,91287.78
2023-02-03T23:54:42.650Z,91289.75
2023-02-03T23:57:09.452Z,91283.38
2023-02-03T23:59:36.117Z,91281.88
